createdAt,value
2019-03-22T00:02:31.875Z,7.90
2019-03-22T00:05:12.751Z,7.80
2019-03-22T00:07:56.395Z,7.70
2019-03-22T00:10:37.654Z,7.60
2019-03-22T00:13:18.128Z,7.50
2019-03-22T00:15:59.018Z,7.50
2019-03-22T00:18:39.712Z,7.50
2019-03-22T00:21:20.213Z,7.60
2019-03-22T00:24:00.903Z,7.50
2019-03-22T00:26:41.787Z,7.50
2019-03-22T00:29:24.698Z,7.40
2019-03-22T00:32:05.578Z,7.40
2019-03-22T00:34:46.178Z,7.40
2019-03-22T00:37:26.717Z,7.30
2019-03-22T00:40:08.064Z,7.30
2019-03-22T00:42:48.628Z,7.30
2019-03-22T00:45:29.265Z,7.30
2019-03-22T00:48:12.227Z,7.30
2019-03-22T00:50:55.947Z,7.20
2019-03-22T00:53:36.568Z,7.20
2019-03-22T00:56:17.219Z,7.10
2019-03-22T00:58:58.118Z,7.00
2019-03-22T01:01:38.926Z,7.00
2019-03-22T01:04:19.573Z,6.90
2019-03-22T01:07:00.088Z,7.00
2019-03-22T01:09:40.879Z,7.00
2019-03-22T01:12:21.402Z,7.00
2019-03-22T01:15:02.341Z,7.00
2019-03-22T01:17:48.450Z,7.00
2019-03-22T01:20:29.318Z,7.00
2019-03-22T01:23:09.826Z,7.10
2019-03-22T01:25:50.745Z,7.00
2019-03-22T01:28:32.874Z,7.10
2019-03-22T01:31:15.809Z,7.10
2019-03-22T01:33:56.728Z,7.20
2019-03-22T01:36:37.840Z,7.10
2019-03-22T01:39:18.589Z,7.00
2019-03-22T01:41:59.446Z,6.90
2019-03-22T01:44:40.278Z,6.90
2019-03-22T01:47:24.591Z,6.90
2019-03-22T01:50:08.571Z,6.80
2019-03-22T01:52:49.333Z,6.80
2019-03-22T01:55:30.194Z,6.80
2019-03-22T01:58:11.026Z,6.90
2019-03-22T02:00:53.278Z,6.90
2019-03-22T02:03:33.957Z,6.80
2019-03-22T02:06:15.664Z,6.70
2019-03-22T02:08:56.698Z,6.60
2019-03-22T02:11:37.611Z,6.50
2019-03-22T02:14:20.732Z,6.50
2019-03-22T02:17:01.312Z,6.50
2019-03-22T02:19:41.806Z,6.50
2019-03-22T02:22:22.774Z,6.50
2019-03-22T02:25:03.504Z,6.50
2019-03-22T02:27:44.512Z,6.50
2019-03-22T02:30:25.145Z,6.50
2019-03-22T02:33:06.036Z,6.40
2019-03-22T02:35:48.341Z,6.50
2019-03-22T02:38:28.917Z,6.50
2019-03-22T02:41:09.693Z,6.50
2019-03-22T02:43:50.350Z,6.50
2019-03-22T02:46:31.036Z,7.40
2019-03-22T02:49:14.144Z,6.30
2019-03-22T02:51:55.064Z,6.20
2019-03-22T02:54:38.166Z,6.30
2019-03-22T02:57:18.819Z,6.30
2019-03-22T03:00:00.533Z,6.40
2019-03-22T03:02:44.039Z,6.40
2019-03-22T03:05:24.578Z,6.30
2019-03-22T03:08:06.724Z,6.30
2019-03-22T03:10:50.511Z,6.30
2019-03-22T03:13:32.417Z,6.30
2019-03-22T03:16:14.761Z,6.20
2019-03-22T03:18:55.646Z,6.20
2019-03-22T03:21:36.404Z,6.10
2019-03-22T03:24:17.270Z,6.10
2019-03-22T03:26:57.916Z,6.10
2019-03-22T03:29:38.476Z,6.10
2019-03-22T03:32:19.581Z,6.20
2019-03-22T03:35:00.478Z,6.10
2019-03-22T03:37:41.993Z,6.00
2019-03-22T03:40:23.223Z,6.00
2019-03-22T03:43:03.950Z,6.00
2019-03-22T03:45:44.616Z,5.90
2019-03-22T03:48:25.555Z,6.00
2019-03-22T03:51:20.221Z,6.00
2019-03-22T03:54:03.559Z,5.90
2019-03-22T03:56:44.408Z,5.80
2019-03-22T03:59:26.195Z,5.80
2019-03-22T04:02:08.219Z,5.70
2019-03-22T04:04:48.886Z,5.60
2019-03-22T04:07:29.907Z,5.60
2019-03-22T04:10:11.048Z,5.70
2019-03-22T04:12:51.642Z,5.80
2019-03-22T04:15:32.476Z,5.80
2019-03-22T04:18:13.268Z,5.80
2019-03-22T04:20:55.603Z,5.80
2019-03-22T04:23:36.474Z,5.70
2019-03-22T04:26:33.941Z,5.70
2019-03-22T04:29:30.942Z,5.70
2019-03-22T04:32:28.779Z,5.70
2019-03-22T04:35:25.190Z,5.80
2019-03-22T04:38:23.778Z,5.80
2019-03-22T04:41:20.974Z,5.80
2019-03-22T04:44:18.202Z,5.60
2019-03-22T04:47:18.970Z,5.50
2019-03-22T04:50:15.877Z,5.40
2019-03-22T04:53:17.495Z,5.30
2019-03-22T04:56:18.209Z,5.30
2019-03-22T04:59:19.623Z,5.20
2019-03-22T05:02:18.070Z,5.20
2019-03-22T05:05:16.253Z,5.10
2019-03-22T05:08:14.891Z,5.10
2019-03-22T05:11:15.287Z,5.10
2019-03-22T05:14:14.197Z,5.10
2019-03-22T05:17:13.243Z,5.10
2019-03-22T05:20:12.480Z,5.20
2019-03-22T05:23:11.489Z,5.20
2019-03-22T05:26:08.743Z,5.20
2019-03-22T05:29:08.317Z,5.30
2019-03-22T05:32:14.793Z,5.30
2019-03-22T05:35:12.338Z,5.30
2019-03-22T05:38:10.221Z,5.40
2019-03-22T05:41:07.742Z,5.50
2019-03-22T05:44:04.790Z,5.70
2019-03-22T05:47:02.406Z,5.90
2019-03-22T05:49:59.034Z,6.10
2019-03-22T05:52:56.197Z,6.20
2019-03-22T05:55:52.830Z,6.20
2019-03-22T05:58:49.303Z,6.40
2019-03-22T06:01:45.962Z,6.50
2019-03-22T06:04:42.689Z,6.70
2019-03-22T06:07:39.946Z,6.80
2019-03-22T06:10:36.597Z,6.90
2019-03-22T06:13:34.052Z,7.00
2019-03-22T06:16:31.472Z,7.10
2019-03-22T06:19:28.243Z,7.20
2019-03-22T06:22:24.720Z,7.40
2019-03-22T06:25:22.385Z,7.60
2019-03-22T06:28:19.106Z,7.70
2019-03-22T06:31:16.318Z,7.80
2019-03-22T06:34:13.518Z,8.00
2019-03-22T06:37:11.866Z,8.30
2019-03-22T06:40:11.399Z,8.90
2019-03-22T06:43:08.667Z,9.60
2019-03-22T06:46:06.008Z,10.00
2019-03-22T06:49:02.837Z,10.70
2019-03-22T06:52:00.297Z,11.40
2019-03-22T06:54:57.124Z,12.00
2019-03-22T06:57:55.803Z,12.60
2019-03-22T07:00:52.401Z,13.00
2019-03-22T07:03:50.641Z,12.90
2019-03-22T07:06:48.877Z,12.70
2019-03-22T07:09:46.641Z,12.40
2019-03-22T07:12:43.943Z,12.80
2019-03-22T07:15:40.880Z,13.20
2019-03-22T07:18:39.313Z,13.70
2019-03-22T07:21:35.661Z,14.50
2019-03-22T07:24:32.276Z,14.50
2019-03-22T07:27:29.609Z,14.20
2019-03-22T07:30:26.381Z,14.20
2019-03-22T07:33:22.550Z,14.60
2019-03-22T07:36:19.391Z,15.20
2019-03-22T07:39:16.483Z,15.40
2019-03-22T07:42:12.762Z,15.60
2019-03-22T07:45:11.343Z,16.40
2019-03-22T07:48:08.523Z,17.00
2019-03-22T07:51:05.114Z,17.70
2019-03-22T07:54:03.676Z,18.30
2019-03-22T07:56:59.391Z,18.20
2019-03-22T07:59:56.459Z,18.00
2019-03-22T08:02:53.577Z,17.60
2019-03-22T08:05:51.500Z,17.50
2019-03-22T08:08:48.854Z,17.50
2019-03-22T08:11:45.756Z,17.40
2019-03-22T08:14:42.359Z,18.30
2019-03-22T08:17:39.885Z,19.00
2019-03-22T08:20:38.601Z,19.90
2019-03-22T08:23:35.358Z,19.00
2019-03-22T08:26:32.396Z,19.50
2019-03-22T08:29:29.409Z,20.40
2019-03-22T08:32:26.765Z,20.30
2019-03-22T08:35:23.286Z,20.00
2019-03-22T08:38:20.635Z,20.00
2019-03-22T08:41:17.124Z,20.20
2019-03-22T08:44:14.392Z,20.30
2019-03-22T08:47:10.962Z,20.30
2019-03-22T08:50:09.240Z,20.30
2019-03-22T08:53:05.677Z,20.60
2019-03-22T08:56:03.016Z,21.20
2019-03-22T08:59:00.553Z,21.40
2019-03-22T09:01:56.553Z,21.90
2019-03-22T09:04:53.752Z,22.70
2019-03-22T09:07:51.064Z,23.10
2019-03-22T09:10:47.936Z,23.80
2019-03-22T09:13:50.245Z,24.00
2019-03-22T09:16:47.443Z,24.00
2019-03-22T09:19:43.926Z,24.90
2019-03-22T09:22:42.008Z,25.50
2019-03-22T09:25:39.329Z,26.00
2019-03-22T09:28:38.645Z,27.10
2019-03-22T09:31:35.216Z,27.60
2019-03-22T09:34:33.867Z,27.00
2019-03-22T09:37:30.855Z,27.20
2019-03-22T09:40:28.056Z,26.90
2019-03-22T09:43:24.327Z,26.70
2019-03-22T09:46:21.630Z,26.90
2019-03-22T09:49:18.116Z,27.50
2019-03-22T09:52:15.627Z,28.70
2019-03-22T09:55:14.180Z,28.80
2019-03-22T09:58:10.102Z,28.60
2019-03-22T10:01:06.829Z,29.30
2019-03-22T10:04:03.796Z,29.20
2019-03-22T10:07:00.739Z,28.00
2019-03-22T10:09:58.457Z,28.10
2019-03-22T10:12:54.791Z,28.60
2019-03-22T10:15:51.025Z,28.80
2019-03-22T10:18:48.572Z,28.90
2019-03-22T10:21:46.315Z,29.20
2019-03-22T10:24:42.407Z,29.30
2019-03-22T10:27:39.892Z,29.20
2019-03-22T10:30:37.311Z,29.60
2019-03-22T10:33:37.608Z,30.50
2019-03-22T10:36:34.752Z,30.90
2019-03-22T10:39:31.754Z,30.10
2019-03-22T10:42:27.941Z,29.60
2019-03-22T10:45:24.063Z,30.50
2019-03-22T10:48:20.805Z,30.60
2019-03-22T10:51:17.783Z,30.00
2019-03-22T10:54:15.580Z,29.70
2019-03-22T10:57:11.738Z,29.90
2019-03-22T11:00:11.773Z,30.30
2019-03-22T11:03:08.792Z,29.70
2019-03-22T11:06:06.112Z,30.50
2019-03-22T11:09:04.574Z,30.50
2019-03-22T11:12:11.749Z,29.50
2019-03-22T11:14:59.757Z,29.70
2019-03-22T11:17:57.026Z,30.60
2019-03-22T11:20:53.132Z,30.60
2019-03-22T11:23:49.706Z,31.00
2019-03-22T11:26:47.257Z,32.20
2019-03-22T11:29:44.404Z,32.00
2019-03-22T11:32:40.730Z,31.20
2019-03-22T11:35:38.222Z,31.00
2019-03-22T11:38:35.681Z,30.90
2019-03-22T11:41:32.294Z,30.40
2019-03-22T11:44:29.527Z,30.80
2019-03-22T11:47:27.107Z,31.00
2019-03-22T11:50:24.468Z,31.10
2019-03-22T11:53:21.767Z,31.40
2019-03-22T11:56:18.920Z,31.90
2019-03-22T11:59:16.052Z,32.40
2019-03-22T12:02:21.966Z,32.60
2019-03-22T12:05:12.342Z,32.80
2019-03-22T12:08:09.669Z,32.60
2019-03-22T12:11:07.966Z,31.80
2019-03-22T12:14:05.680Z,31.80
2019-03-22T12:17:04.064Z,31.50
2019-03-22T12:20:02.168Z,31.80
2019-03-22T12:22:58.562Z,32.20
2019-03-22T12:25:55.774Z,31.30
2019-03-22T12:28:52.457Z,30.80
2019-03-22T12:31:49.602Z,31.30
2019-03-22T12:34:46.892Z,31.50
2019-03-22T12:37:44.222Z,31.40
2019-03-22T12:40:41.358Z,32.60
2019-03-22T12:43:37.634Z,32.10
2019-03-22T12:46:33.959Z,32.00
2019-03-22T12:49:31.984Z,31.80
2019-03-22T12:52:28.825Z,32.90
2019-03-22T12:55:25.470Z,32.50
2019-03-22T12:58:22.645Z,32.50
2019-03-22T13:01:20.105Z,31.80
2019-03-22T13:04:16.419Z,31.70
2019-03-22T13:07:12.937Z,32.10
2019-03-22T13:10:11.548Z,32.80
2019-03-22T13:13:07.857Z,32.70
2019-03-22T13:16:04.087Z,32.80
2019-03-22T13:19:00.981Z,33.20
2019-03-22T13:21:58.065Z,32.40
2019-03-22T13:24:54.261Z,32.60
2019-03-22T13:27:52.801Z,32.70
2019-03-22T13:30:50.385Z,32.30
2019-03-22T13:33:47.907Z,32.20
2019-03-22T13:36:44.631Z,31.40
2019-03-22T13:39:42.034Z,32.30
2019-03-22T13:42:39.052Z,32.50
2019-03-22T13:45:36.730Z,32.10
2019-03-22T13:48:33.916Z,32.10
2019-03-22T13:51:30.913Z,32.40
2019-03-22T13:54:28.456Z,32.60
2019-03-22T13:57:24.854Z,31.90
2019-03-22T14:00:22.781Z,31.30
2019-03-22T14:03:19.361Z,31.20
2019-03-22T14:06:16.889Z,30.80
2019-03-22T14:09:13.637Z,30.80
2019-03-22T14:12:10.944Z,30.80
2019-03-22T14:15:08.864Z,30.10
2019-03-22T14:18:07.320Z,30.30
2019-03-22T14:21:07.440Z,30.50
2019-03-22T14:24:04.784Z,30.50
2019-03-22T14:27:02.172Z,30.30
2019-03-22T14:29:59.021Z,30.40
2019-03-22T14:32:56.346Z,30.40
2019-03-22T14:35:52.636Z,30.30
2019-03-22T14:38:49.483Z,30.20
2019-03-22T14:41:48.131Z,29.90
2019-03-22T14:44:47.671Z,29.80
2019-03-22T14:47:44.066Z,29.20
2019-03-22T14:50:40.640Z,28.90
2019-03-22T14:53:38.118Z,28.60
2019-03-22T14:56:34.946Z,28.10
2019-03-22T14:59:31.815Z,27.80
2019-03-22T15:02:29.460Z,27.90
2019-03-22T15:05:26.538Z,27.70
2019-03-22T15:08:23.573Z,27.20
2019-03-22T15:11:20.435Z,27.20
2019-03-22T15:14:44.738Z,27.30
2019-03-22T15:18:05.466Z,27.20
2019-03-22T15:21:13.271Z,27.00
2019-03-22T15:24:29.474Z,26.50
2019-03-22T15:27:45.605Z,26.00
2019-03-22T15:31:04.286Z,26.20
2019-03-22T15:34:28.734Z,26.00
2019-03-22T15:37:50.464Z,25.20
2019-03-22T15:40:47.883Z,24.60
2019-03-22T15:43:44.846Z,23.80
2019-03-22T15:46:42.406Z,23.50
2019-03-22T15:49:39.593Z,23.30
2019-03-22T15:52:35.982Z,23.10
2019-03-22T15:55:32.465Z,22.70
2019-03-22T15:58:29.026Z,22.40
2019-03-22T16:01:26.843Z,22.30
2019-03-22T16:04:26.152Z,22.30
2019-03-22T16:07:22.055Z,21.80
2019-03-22T16:10:19.596Z,21.00
2019-03-22T16:13:16.478Z,20.40
2019-03-22T16:16:12.904Z,19.90
2019-03-22T16:19:09.209Z,19.60
2019-03-22T16:22:08.638Z,19.30
2019-03-22T16:25:07.569Z,19.20
2019-03-22T16:28:04.743Z,18.90
2019-03-22T16:31:01.164Z,18.80
2019-03-22T16:33:58.628Z,18.70
2019-03-22T16:36:55.129Z,18.50
2019-03-22T16:39:52.417Z,18.50
2019-03-22T16:42:49.382Z,18.40
2019-03-22T16:45:47.112Z,18.30
2019-03-22T16:48:44.235Z,18.20
2019-03-22T16:51:41.347Z,18.00
2019-03-22T16:54:38.938Z,17.80
2019-03-22T16:57:36.241Z,17.70
2019-03-22T17:00:33.920Z,17.60
2019-03-22T17:03:33.044Z,17.50
2019-03-22T17:06:30.266Z,17.40
2019-03-22T17:09:28.232Z,17.20
2019-03-22T17:12:25.739Z,17.10
2019-03-22T17:15:23.188Z,16.90
2019-03-22T17:18:20.385Z,16.90
2019-03-22T17:21:17.913Z,16.70
2019-03-22T17:24:15.371Z,16.60
2019-03-22T17:27:11.695Z,16.60
2019-03-22T17:30:08.638Z,16.50
2019-03-22T17:33:08.002Z,16.40
2019-03-22T17:36:04.653Z,16.30
2019-03-22T17:39:01.126Z,16.20
2019-03-22T17:41:58.448Z,16.00
2019-03-22T17:44:55.019Z,15.90
2019-03-22T17:47:52.615Z,15.90
2019-03-22T17:50:49.139Z,15.80
2019-03-22T17:53:46.272Z,15.80
2019-03-22T17:56:42.990Z,15.70
2019-03-22T17:59:44.251Z,15.80
2019-03-22T18:02:42.099Z,15.80
2019-03-22T18:05:39.171Z,15.70
2019-03-22T18:08:37.257Z,15.60
2019-03-22T18:11:34.415Z,15.60
2019-03-22T18:14:31.596Z,15.30
2019-03-22T18:17:27.973Z,15.20
2019-03-22T18:20:25.415Z,14.90
2019-03-22T18:23:22.744Z,14.80
2019-03-22T18:26:19.023Z,14.70
2019-03-22T18:29:15.555Z,14.60
2019-03-22T18:32:13.251Z,14.50
2019-03-22T18:35:12.486Z,14.40
2019-03-22T18:38:08.635Z,14.30
2019-03-22T18:41:05.919Z,14.20
2019-03-22T18:44:03.145Z,14.10
2019-03-22T18:46:59.427Z,14.00
2019-03-22T18:49:56.662Z,13.90
2019-03-22T18:52:54.090Z,13.90
2019-03-22T18:55:50.859Z,13.10
2019-03-22T18:58:47.702Z,13.70
2019-03-22T19:01:45.369Z,13.60
2019-03-22T19:04:44.286Z,13.60
2019-03-22T19:07:41.291Z,13.50
2019-03-22T19:10:39.026Z,13.40
2019-03-22T19:13:36.472Z,13.30
2019-03-22T19:16:34.895Z,13.30
2019-03-22T19:19:36.153Z,13.20
2019-03-22T19:22:33.679Z,13.10
2019-03-22T19:25:30.706Z,13.10
2019-03-22T19:28:27.763Z,13.00
2019-03-22T19:31:25.606Z,12.90
2019-03-22T19:34:23.215Z,12.80
2019-03-22T19:37:20.984Z,12.70
2019-03-22T19:40:18.366Z,12.70
2019-03-22T19:43:15.472Z,12.60
2019-03-22T19:46:13.291Z,12.40
2019-03-22T19:49:10.930Z,12.30
2019-03-22T19:52:08.534Z,12.30
2019-03-22T19:55:06.821Z,12.30
2019-03-22T19:58:03.691Z,12.20
2019-03-22T20:01:01.024Z,12.10
2019-03-22T20:03:58.085Z,12.10
2019-03-22T20:06:57.089Z,12.10
2019-03-22T20:09:55.150Z,12.00
2019-03-22T20:12:52.893Z,11.90
2019-03-22T20:15:50.882Z,11.80
2019-03-22T20:18:54.919Z,11.80
2019-03-22T20:21:52.871Z,11.80
2019-03-22T20:24:52.468Z,11.70
2019-03-22T20:27:52.639Z,11.70
2019-03-22T20:30:49.642Z,11.60
2019-03-22T20:33:47.096Z,11.50
2019-03-22T20:36:44.993Z,11.50
2019-03-22T20:39:41.910Z,11.40
2019-03-22T20:42:38.667Z,11.30
2019-03-22T20:45:37.383Z,11.30
2019-03-22T20:48:34.891Z,11.30
2019-03-22T20:51:32.616Z,11.30
2019-03-22T20:54:29.820Z,11.30
2019-03-22T20:57:26.432Z,11.30
2019-03-22T21:00:23.890Z,11.40
2019-03-22T21:03:21.662Z,11.50
2019-03-22T21:06:19.073Z,11.40
2019-03-22T21:09:16.834Z,11.40
2019-03-22T21:12:14.876Z,11.40
2019-03-22T21:15:23.579Z,11.30
2019-03-22T21:18:11.464Z,11.30
2019-03-22T21:21:08.710Z,11.20
2019-03-22T21:24:05.721Z,11.20
2019-03-22T21:27:03.548Z,11.10
2019-03-22T21:30:00.773Z,11.10
2019-03-22T21:33:01.783Z,11.10
2019-03-22T21:36:01.063Z,11.00
2019-03-22T21:38:58.533Z,11.00
2019-03-22T21:41:57.598Z,10.90
2019-03-22T21:44:54.470Z,10.90
2019-03-22T21:47:51.686Z,10.90
2019-03-22T21:50:49.171Z,10.80
2019-03-22T21:53:47.065Z,10.80
2019-03-22T21:56:43.933Z,10.80
2019-03-22T21:59:41.147Z,10.70
2019-03-22T22:02:39.558Z,10.70
2019-03-22T22:05:36.216Z,10.70
2019-03-22T22:08:33.718Z,10.80
2019-03-22T22:11:31.548Z,10.60
2019-03-22T22:14:29.282Z,10.50
2019-03-22T22:17:26.703Z,10.40
2019-03-22T22:20:28.874Z,10.40
2019-03-22T22:23:22.870Z,10.30
2019-03-22T22:26:20.825Z,10.20
2019-03-22T22:29:18.005Z,10.10
2019-03-22T22:32:15.787Z,10.00
2019-03-22T22:35:13.627Z,10.10
2019-03-22T22:38:11.170Z,10.10
2019-03-22T22:41:08.891Z,10.20
2019-03-22T22:44:06.627Z,10.20
2019-03-22T22:47:03.986Z,10.10
2019-03-22T22:50:01.591Z,10.00
2019-03-22T22:52:58.529Z,9.90
2019-03-22T22:55:55.473Z,9.80
2019-03-22T22:58:53.177Z,9.90
2019-03-22T23:01:50.646Z,9.80
2019-03-22T23:04:47.602Z,9.80
2019-03-22T23:07:45.503Z,9.70
2019-03-22T23:10:42.848Z,9.60
2019-03-22T23:13:39.980Z,9.50
2019-03-22T23:16:36.725Z,9.50
2019-03-22T23:19:34.223Z,9.50
2019-03-22T23:22:31.944Z,9.60
2019-03-22T23:25:29.611Z,9.50
2019-03-22T23:28:27.257Z,9.50
2019-03-22T23:31:24.037Z,9.50
2019-03-22T23:34:20.739Z,9.40
2019-03-22T23:37:19.307Z,9.40
2019-03-22T23:40:15.909Z,9.40
2019-03-22T23:43:13.619Z,9.40
2019-03-22T23:46:11.160Z,9.30
2019-03-22T23:49:08.833Z,9.30
2019-03-22T23:52:07.799Z,9.30
2019-03-22T23:55:05.649Z,9.30
2019-03-22T23:58:03.220Z,9.30
